createdAt,value
2018-12-26T00:02:27.491Z,5.50
2018-12-26T00:05:08.579Z,6.80
2018-12-26T00:07:49.455Z,7.27
2018-12-26T00:10:30.461Z,7.30
2018-12-26T00:13:11.930Z,6.57
2018-12-26T00:15:52.708Z,8.20
2018-12-26T00:18:33.516Z,6.27
2018-12-26T00:21:14.572Z,8.00
2018-12-26T00:23:55.670Z,11.60
2018-12-26T00:26:36.388Z,8.17
2018-12-26T00:29:17.828Z,7.90
2018-12-26T00:31:58.216Z,8.60
2018-12-26T00:34:39.436Z,6.80
2018-12-26T00:37:20.191Z,11.77
2018-12-26T00:40:00.728Z,7.77
2018-12-26T00:42:42.188Z,6.77
2018-12-26T00:45:23.375Z,6.13
2018-12-26T00:48:04.882Z,5.77
2018-12-26T00:50:45.671Z,7.90
2018-12-26T00:53:27.181Z,5.73
2018-12-26T00:56:10.622Z,5.60
2018-12-26T00:58:51.351Z,5.60
2018-12-26T01:01:32.731Z,6.03
2018-12-26T01:04:13.388Z,7.27
2018-12-26T01:06:54.023Z,8.00
2018-12-26T01:09:35.304Z,5.73
2018-12-26T01:12:15.868Z,5.73
2018-12-26T01:14:56.398Z,6.90
2018-12-26T01:17:37.300Z,6.27
2018-12-26T01:20:18.576Z,10.03
2018-12-26T01:22:59.480Z,9.03
2018-12-26T01:25:40.257Z,9.53
2018-12-26T01:28:21.860Z,7.83
2018-12-26T01:31:02.552Z,6.57
2018-12-26T01:33:43.635Z,7.80
2018-12-26T01:36:24.392Z,10.43
2018-12-26T01:39:05.069Z,6.57
2018-12-26T01:41:45.592Z,6.77
2018-12-26T01:44:26.690Z,6.70
2018-12-26T01:47:07.632Z,9.43
2018-12-26T01:49:48.434Z,8.47
2018-12-26T01:52:29.035Z,8.20
2018-12-26T01:55:09.940Z,5.47
2018-12-26T01:57:51.427Z,7.47
2018-12-26T02:00:32.904Z,6.77
2018-12-26T02:03:13.176Z,21.07
2018-12-26T02:05:54.181Z,6.03
2018-12-26T02:08:34.640Z,6.70
2018-12-26T02:11:15.508Z,11.53
2018-12-26T02:13:56.480Z,8.93
2018-12-26T02:16:37.148Z,6.80
2018-12-26T02:19:18.681Z,9.30
2018-12-26T02:21:59.999Z,7.77
2018-12-26T02:24:41.440Z,7.87
2018-12-26T02:27:23.020Z,6.97
2018-12-26T02:30:03.350Z,7.77
2018-12-26T02:32:44.230Z,8.47
2018-12-26T02:35:24.884Z,7.87
2018-12-26T02:38:05.836Z,9.93
2018-12-26T02:40:46.630Z,7.40
2018-12-26T02:43:27.916Z,9.70
2018-12-26T02:46:08.578Z,6.57
2018-12-26T02:48:50.475Z,10.60
2018-12-26T02:51:31.196Z,6.70
2018-12-26T02:54:12.009Z,8.57
2018-12-26T02:56:52.686Z,7.00
2018-12-26T02:59:33.228Z,10.00
2018-12-26T03:02:14.019Z,13.50
2018-12-26T03:04:55.098Z,9.27
2018-12-26T03:07:35.760Z,7.33
2018-12-26T03:10:17.298Z,7.33
2018-12-26T03:12:58.619Z,8.00
2018-12-26T03:15:39.631Z,10.50
2018-12-26T03:18:19.350Z,8.43
2018-12-26T03:21:07.800Z,7.87
2018-12-26T03:23:56.156Z,7.50
2018-12-26T03:29:31.236Z,6.30
2018-12-26T03:32:12.292Z,6.47
2018-12-26T03:34:53.304Z,7.07
2018-12-26T03:37:34.284Z,6.50
2018-12-26T03:40:13.883Z,7.07
2018-12-26T03:45:56.464Z,7.00
2018-12-26T03:48:44.599Z,7.70
2018-12-26T03:51:32.837Z,6.50
2018-12-26T03:54:21.235Z,5.73
2018-12-26T03:57:09.683Z,5.50
2018-12-26T04:00:17.112Z,7.57
2018-12-26T04:03:05.519Z,5.40
2018-12-26T04:05:54.172Z,5.93
2018-12-26T04:08:42.751Z,8.73
2018-12-26T04:11:31.163Z,5.20
2018-12-26T04:14:19.236Z,8.70
2018-12-26T04:17:07.354Z,8.13
2018-12-26T04:19:55.365Z,5.93
2018-12-26T04:22:43.837Z,7.17
2018-12-26T04:25:31.975Z,12.23
2018-12-26T04:28:20.207Z,9.10
2018-12-26T04:34:02.924Z,11.37
2018-12-26T04:36:51.203Z,11.20
2018-12-26T04:39:39.521Z,8.80
2018-12-26T04:42:20.620Z,10.13
2018-12-26T04:45:01.817Z,8.70
2018-12-26T04:47:42.145Z,8.03
2018-12-26T04:50:23.230Z,6.60
2018-12-26T04:53:04.742Z,11.33
2018-12-26T04:55:45.956Z,12.50
2018-12-26T04:58:27.419Z,7.93
2018-12-26T05:01:08.594Z,11.07
2018-12-26T05:03:49.409Z,8.03
2018-12-26T05:06:30.440Z,7.20
2018-12-26T05:09:11.741Z,5.73
2018-12-26T05:11:54.052Z,6.80
2018-12-26T05:14:35.564Z,9.03
2018-12-26T05:17:16.816Z,6.77
2018-12-26T05:19:57.868Z,6.00
2018-12-26T05:22:38.629Z,8.40
2018-12-26T05:25:19.577Z,5.80
2018-12-26T05:28:00.459Z,7.33
2018-12-26T05:30:41.249Z,6.23
2018-12-26T05:33:22.383Z,6.90
2018-12-26T05:36:03.253Z,6.30
2018-12-26T05:38:43.940Z,5.87
2018-12-26T05:41:24.595Z,6.37
2018-12-26T05:44:05.692Z,6.80
2018-12-26T05:46:46.577Z,7.23
2018-12-26T05:49:27.797Z,11.00
2018-12-26T05:52:08.325Z,7.87
2018-12-26T05:54:49.376Z,6.83
2018-12-26T05:57:30.803Z,6.97
2018-12-26T06:00:11.508Z,6.00
2018-12-26T06:02:51.928Z,6.70
2018-12-26T06:05:32.901Z,7.30
2018-12-26T06:08:14.087Z,8.30
2018-12-26T06:10:54.512Z,5.90
2018-12-26T06:13:35.739Z,6.17
2018-12-26T06:16:17.315Z,5.20
2018-12-26T06:18:58.572Z,5.83
2018-12-26T06:21:39.811Z,7.53
2018-12-26T06:24:21.371Z,9.67
2018-12-26T06:27:01.791Z,4.70
2018-12-26T06:29:42.911Z,11.07
2018-12-26T06:32:24.148Z,6.13
2018-12-26T06:35:05.188Z,8.40
2018-12-26T06:37:45.480Z,6.80
2018-12-26T06:40:26.315Z,5.80
2018-12-26T06:43:06.908Z,5.53
2018-12-26T06:45:48.131Z,8.80
2018-12-26T06:48:29.424Z,7.37
2018-12-26T06:51:10.546Z,6.47
2018-12-26T06:53:51.839Z,8.10
2018-12-26T06:56:33.828Z,6.87
2018-12-26T06:59:14.956Z,9.57
2018-12-26T07:01:56.187Z,6.13
2018-12-26T07:04:37.141Z,6.73
2018-12-26T07:07:18.275Z,8.20
2018-12-26T07:09:59.541Z,7.00
2018-12-26T07:12:39.988Z,6.60
2018-12-26T07:15:20.288Z,6.70
2018-12-26T07:18:00.929Z,6.43
2018-12-26T07:20:42.012Z,5.40
2018-12-26T07:23:23.362Z,4.93
2018-12-26T07:26:04.012Z,7.20
2018-12-26T07:28:45.044Z,10.90
2018-12-26T07:31:26.600Z,6.70
2018-12-26T07:34:08.010Z,9.37
2018-12-26T07:36:49.066Z,5.80
2018-12-26T07:39:29.617Z,4.73
2018-12-26T07:42:10.209Z,4.97
2018-12-26T07:44:51.147Z,5.70
2018-12-26T07:47:32.127Z,5.77
2018-12-26T07:50:13.429Z,7.00
2018-12-26T07:52:54.191Z,6.20
2018-12-26T07:55:35.173Z,7.60
2018-12-26T07:58:17.759Z,8.53
2018-12-26T08:00:58.824Z,5.47
2018-12-26T08:03:39.919Z,5.40
2018-12-26T08:06:20.497Z,6.07
2018-12-26T08:09:02.709Z,6.70
2018-12-26T08:11:43.903Z,8.70
2018-12-26T08:14:24.336Z,7.57
2018-12-26T08:17:05.384Z,8.17
2018-12-26T08:19:45.993Z,11.87
2018-12-26T08:22:26.549Z,11.83
2018-12-26T08:25:07.580Z,15.93
2018-12-26T08:27:48.168Z,16.97
2018-12-26T08:30:28.736Z,14.27
2018-12-26T08:33:09.845Z,7.70
2018-12-26T08:35:50.968Z,5.20
2018-12-26T08:38:31.304Z,14.20
2018-12-26T08:41:12.240Z,5.33
2018-12-26T08:43:53.065Z,5.57
2018-12-26T08:46:34.272Z,5.90
2018-12-26T08:49:15.048Z,5.50
2018-12-26T08:51:56.200Z,6.83
2018-12-26T08:54:37.712Z,8.53
2018-12-26T08:57:18.476Z,11.07
2018-12-26T08:59:59.185Z,15.23
2018-12-26T09:02:39.720Z,5.73
2018-12-26T09:05:21.153Z,5.70
2018-12-26T09:08:02.519Z,4.40
2018-12-26T09:10:44.086Z,4.43
2018-12-26T09:13:26.159Z,5.20
2018-12-26T09:16:07.428Z,6.20
2018-12-26T09:18:48.314Z,9.37
2018-12-26T09:21:29.344Z,5.50
2018-12-26T09:24:10.308Z,8.60
2018-12-26T09:26:52.016Z,6.40
2018-12-26T09:29:33.636Z,6.03
2018-12-26T09:32:14.749Z,5.93
2018-12-26T09:34:55.447Z,7.97
2018-12-26T09:37:36.424Z,9.50
2018-12-26T09:40:15.895Z,7.47
2018-12-26T09:43:03.973Z,7.70
2018-12-26T09:45:52.711Z,6.30
2018-12-26T09:49:00.052Z,6.70
2018-12-26T09:51:48.419Z,7.23
2018-12-26T09:54:55.824Z,5.00
2018-12-26T09:57:44.467Z,4.60
2018-12-26T10:00:32.935Z,7.20
2018-12-26T10:03:21.264Z,7.50
2018-12-26T10:06:28.693Z,5.03
2018-12-26T10:09:17.115Z,5.73
2018-12-26T10:12:05.564Z,4.90
2018-12-26T10:14:53.906Z,4.90
2018-12-26T10:20:36.872Z,4.60
2018-12-26T10:23:25.186Z,5.33
2018-12-26T10:26:13.515Z,4.87
2018-12-26T10:31:55.793Z,6.07
2018-12-26T10:34:43.787Z,6.17
2018-12-26T10:40:41.341Z,5.63
2018-12-26T10:43:22.660Z,5.30
2018-12-26T10:46:03.174Z,5.53
2018-12-26T10:48:44.012Z,5.57
2018-12-26T10:51:25.492Z,6.00
2018-12-26T10:54:06.179Z,10.53
2018-12-26T10:56:46.922Z,6.30
2018-12-26T10:59:27.836Z,6.90
2018-12-26T11:02:09.279Z,6.30
2018-12-26T11:04:49.813Z,8.20
2018-12-26T11:07:30.896Z,6.40
2018-12-26T11:10:11.264Z,6.60
2018-12-26T11:12:53.204Z,6.93
2018-12-26T11:15:34.825Z,7.13
2018-12-26T11:18:16.128Z,7.03
2018-12-26T11:20:57.307Z,7.00
2018-12-26T11:23:38.172Z,7.13
2018-12-26T11:26:18.639Z,8.83
2018-12-26T11:28:59.628Z,7.30
2018-12-26T11:31:40.060Z,5.60
2018-12-26T11:34:20.753Z,7.77
2018-12-26T11:37:01.468Z,7.43
2018-12-26T11:39:42.516Z,6.17
2018-12-26T11:42:22.894Z,5.77
2018-12-26T11:45:05.596Z,5.47
2018-12-26T11:47:46.587Z,5.80
2018-12-26T11:50:27.400Z,5.07
2018-12-26T11:53:08.492Z,4.40
2018-12-26T11:55:49.404Z,4.33
2018-12-26T11:58:30.976Z,5.30
2018-12-26T12:01:11.762Z,5.37
2018-12-26T12:03:52.322Z,4.10
2018-12-26T12:06:33.215Z,6.13
2018-12-26T12:09:13.668Z,4.50
2018-12-26T12:11:54.348Z,5.03
2018-12-26T12:14:35.607Z,5.30
2018-12-26T12:17:17.120Z,5.57
2018-12-26T12:19:57.539Z,4.70
2018-12-26T12:22:38.623Z,4.03
2018-12-26T12:25:19.960Z,3.77
2018-12-26T12:28:00.552Z,6.77
2018-12-26T12:30:42.091Z,6.30
2018-12-26T12:33:22.772Z,5.27
2018-12-26T12:36:04.279Z,5.17
2018-12-26T12:38:47.812Z,4.40
2018-12-26T12:41:29.164Z,5.00
2018-12-26T12:44:09.506Z,4.30
2018-12-26T12:46:50.328Z,7.23
2018-12-26T12:49:31.075Z,7.77
2018-12-26T12:52:11.392Z,4.60
2018-12-26T12:54:52.351Z,5.17
2018-12-26T12:57:33.256Z,4.77
2018-12-26T13:00:14.028Z,9.70
2018-12-26T13:03:00.346Z,6.70
2018-12-26T13:05:37.777Z,9.50
2018-12-26T13:08:18.801Z,10.23
2018-12-26T13:10:59.860Z,8.70
2018-12-26T13:13:41.056Z,11.67
2018-12-26T13:16:22.284Z,16.60
2018-12-26T13:19:01.424Z,15.80
2018-12-26T13:21:50.065Z,14.10
2018-12-26T13:24:38.036Z,15.80
2018-12-26T13:27:26.759Z,12.93
2018-12-26T13:30:15.373Z,10.90
2018-12-26T13:35:57.415Z,10.70
2018-12-26T13:38:45.780Z,12.80
2018-12-26T13:41:34.028Z,15.53
2018-12-26T13:47:23.624Z,13.67
2018-12-26T13:50:11.727Z,15.87
2018-12-26T13:53:00.287Z,17.47
2018-12-26T13:55:48.977Z,16.03
2018-12-26T13:58:37.603Z,13.77
2018-12-26T14:01:25.856Z,14.93
2018-12-26T14:04:14.127Z,17.53
2018-12-26T14:09:56.767Z,12.53
2018-12-26T14:12:44.984Z,14.80
2018-12-26T14:15:33.441Z,14.70
2018-12-26T14:18:21.470Z,13.63
2018-12-26T14:21:04.424Z,13.47
2018-12-26T14:23:45.292Z,17.27
2018-12-26T14:26:26.088Z,16.83
2018-12-26T14:29:06.644Z,11.20
2018-12-26T14:31:47.189Z,14.67
2018-12-26T14:34:27.986Z,12.80
2018-12-26T14:37:08.836Z,16.20
2018-12-26T14:39:50.159Z,14.73
2018-12-26T14:42:30.948Z,16.63
2018-12-26T14:45:11.352Z,14.00
2018-12-26T14:47:51.932Z,14.40
2018-12-26T14:50:32.692Z,13.93
2018-12-26T14:53:13.092Z,15.97
2018-12-26T14:55:53.732Z,16.40
2018-12-26T14:58:34.208Z,14.60
2018-12-26T15:01:14.954Z,17.83
2018-12-26T15:03:55.288Z,16.10
2018-12-26T15:06:36.204Z,13.93
2018-12-26T15:09:16.857Z,17.03
2018-12-26T15:11:57.640Z,16.70
2018-12-26T15:14:39.044Z,16.57
2018-12-26T15:17:21.671Z,18.60
2018-12-26T15:20:01.966Z,19.67
2018-12-26T15:22:43.092Z,21.70
2018-12-26T15:25:24.577Z,15.53
2018-12-26T15:28:05.154Z,20.40
2018-12-26T15:30:45.944Z,17.50
2018-12-26T15:33:26.624Z,21.07
2018-12-26T15:36:07.306Z,21.00
2018-12-26T15:38:47.632Z,19.07
2018-12-26T15:41:28.661Z,19.60
2018-12-26T15:44:09.835Z,21.43
2018-12-26T15:46:50.740Z,19.77
2018-12-26T15:49:32.996Z,18.80
2018-12-26T15:52:14.155Z,20.10
2018-12-26T15:54:55.320Z,21.80
2018-12-26T15:57:36.060Z,19.83
2018-12-26T16:00:17.104Z,25.63
2018-12-26T16:02:58.271Z,20.67
2018-12-26T16:05:39.816Z,20.10
2018-12-26T16:08:21.176Z,20.30
2018-12-26T16:11:02.716Z,21.37
2018-12-26T16:13:43.492Z,19.73
2018-12-26T16:16:24.184Z,17.70
2018-12-26T16:19:04.955Z,18.93
2018-12-26T16:21:46.504Z,18.17
2018-12-26T16:24:27.463Z,18.10
2018-12-26T16:27:08.471Z,17.63
2018-12-26T16:29:49.363Z,15.40
2018-12-26T16:32:30.156Z,19.23
2018-12-26T16:35:10.588Z,19.23
2018-12-26T16:37:51.535Z,16.03
2018-12-26T16:40:31.828Z,20.57
2018-12-26T16:43:12.549Z,18.70
2018-12-26T16:45:52.908Z,16.60
2018-12-26T16:48:33.340Z,19.03
2018-12-26T16:51:14.600Z,16.00
2018-12-26T16:53:55.064Z,20.63
2018-12-26T16:56:35.824Z,20.37
2018-12-26T16:59:17.040Z,16.00
2018-12-26T17:01:58.033Z,18.00
2018-12-26T17:04:38.913Z,20.07
2018-12-26T17:07:18.289Z,16.20
2018-12-26T17:10:06.908Z,15.50
2018-12-26T17:12:55.296Z,19.10
2018-12-26T17:15:43.653Z,18.57
2018-12-26T17:18:31.924Z,19.23
2018-12-26T17:21:20.052Z,18.83
2018-12-26T17:24:16.286Z,17.17
2018-12-26T17:26:58.472Z,20.50
2018-12-26T17:29:46.827Z,22.33
2018-12-26T17:32:35.168Z,17.60
2018-12-26T17:35:23.716Z,19.67
2018-12-26T17:38:12.087Z,16.43
2018-12-26T17:41:00.704Z,17.90
2018-12-26T17:46:44.016Z,20.87
2018-12-26T17:49:32.280Z,19.10
2018-12-26T17:52:20.688Z,15.17
2018-12-26T17:55:27.931Z,16.03
2018-12-26T17:58:16.512Z,23.10
2018-12-26T18:01:12.911Z,17.30
2018-12-26T18:03:59.976Z,19.63
2018-12-26T18:06:48.204Z,19.23
2018-12-26T18:09:29.088Z,23.20
2018-12-26T18:12:12.091Z,16.77
2018-12-26T18:14:52.936Z,18.30
2018-12-26T18:17:33.874Z,17.30
2018-12-26T18:20:14.220Z,18.70
2018-12-26T18:22:55.400Z,16.33
2018-12-26T18:25:36.636Z,17.53
2018-12-26T18:28:17.316Z,18.07
2018-12-26T18:30:57.640Z,17.23
2018-12-26T18:33:38.735Z,16.20
2018-12-26T18:36:19.772Z,18.77
2018-12-26T18:39:00.684Z,15.13
2018-12-26T18:41:41.632Z,22.33
2018-12-26T18:44:22.296Z,18.33
2018-12-26T18:47:04.630Z,21.07
2018-12-26T18:49:46.234Z,21.40
2018-12-26T18:52:26.808Z,17.97
2018-12-26T18:55:07.404Z,22.13
2018-12-26T18:57:47.957Z,20.80
2018-12-26T19:00:28.576Z,17.47
2018-12-26T19:03:09.934Z,24.87
2018-12-26T19:05:50.892Z,19.97
2018-12-26T19:08:32.261Z,24.43
2018-12-26T19:11:13.241Z,21.10
2018-12-26T19:13:53.830Z,22.20
2018-12-26T19:16:34.768Z,19.67
2018-12-26T19:19:16.512Z,21.13
2018-12-26T19:21:56.884Z,21.40
2018-12-26T19:24:37.700Z,21.53
2018-12-26T19:27:18.463Z,21.57
2018-12-26T19:29:59.516Z,18.57
2018-12-26T19:32:40.990Z,17.03
2018-12-26T19:35:21.939Z,21.07
2018-12-26T19:38:02.675Z,16.90
2018-12-26T19:40:43.939Z,21.73
2018-12-26T19:43:25.404Z,23.70
2018-12-26T19:46:06.687Z,17.67
2018-12-26T19:48:47.644Z,18.80
2018-12-26T19:51:28.532Z,23.57
2018-12-26T19:54:09.792Z,19.60
2018-12-26T19:56:51.084Z,20.00
2018-12-26T19:59:31.749Z,24.00
2018-12-26T20:02:12.768Z,23.67
2018-12-26T20:04:53.448Z,23.83
2018-12-26T20:07:34.783Z,19.40
2018-12-26T20:10:15.368Z,17.87
2018-12-26T20:12:56.139Z,17.50
2018-12-26T20:15:37.570Z,23.83
2018-12-26T20:18:18.389Z,23.30
2018-12-26T20:20:59.143Z,22.33
2018-12-26T20:23:40.116Z,22.30
2018-12-26T20:26:20.748Z,26.93
2018-12-26T20:29:04.716Z,18.53
2018-12-26T20:31:45.360Z,23.67
2018-12-26T20:34:26.407Z,24.50
2018-12-26T20:37:07.372Z,19.97
2018-12-26T20:39:48.604Z,21.70
2018-12-26T20:42:29.432Z,24.67
2018-12-26T20:45:10.062Z,19.60
2018-12-26T20:47:50.723Z,20.83
2018-12-26T20:50:31.764Z,20.23
2018-12-26T20:53:12.452Z,22.43
2018-12-26T20:55:52.706Z,21.67
2018-12-26T20:58:33.039Z,22.27
2018-12-26T21:01:13.760Z,23.57
2018-12-26T21:03:55.212Z,19.40
2018-12-26T21:06:35.661Z,20.17
2018-12-26T21:09:16.772Z,25.43
2018-12-26T21:11:57.742Z,22.60
2018-12-26T21:14:38.361Z,21.03
2018-12-26T21:17:19.171Z,20.70
2018-12-26T21:20:00.240Z,23.10
2018-12-26T21:22:40.931Z,23.43
2018-12-26T21:25:22.488Z,30.70
2018-12-26T21:28:03.429Z,21.37
2018-12-26T21:30:44.627Z,20.90
2018-12-26T21:33:25.484Z,21.10
2018-12-26T21:36:05.969Z,19.70
2018-12-26T21:38:46.844Z,23.80
2018-12-26T21:41:27.268Z,20.33
2018-12-26T21:44:08.217Z,26.47
2018-12-26T21:46:49.524Z,22.33
2018-12-26T21:49:30.380Z,25.00
2018-12-26T21:52:11.236Z,20.87
2018-12-26T21:54:52.524Z,26.30
2018-12-26T21:57:33.163Z,27.53
2018-12-26T22:00:14.288Z,28.60
2018-12-26T22:02:55.024Z,23.20
2018-12-26T22:05:36.523Z,24.20
2018-12-26T22:08:17.724Z,22.10
2018-12-26T22:10:58.513Z,21.43
2018-12-26T22:13:39.369Z,27.43
2018-12-26T22:16:20.233Z,25.60
2018-12-26T22:19:00.887Z,23.23
2018-12-26T22:21:41.904Z,25.13
2018-12-26T22:24:22.644Z,19.90
2018-12-26T22:27:04.061Z,19.57
2018-12-26T22:29:44.688Z,22.57
2018-12-26T22:32:30.640Z,23.33
2018-12-26T22:35:07.915Z,20.93
2018-12-26T22:37:48.894Z,22.90
2018-12-26T22:40:29.547Z,19.47
2018-12-26T22:43:11.073Z,18.30
2018-12-26T22:45:51.601Z,23.47
2018-12-26T22:48:32.816Z,23.43
2018-12-26T22:51:14.280Z,25.83
2018-12-26T22:53:55.510Z,25.63
2018-12-26T22:56:36.628Z,24.33
2018-12-26T22:59:17.832Z,22.27
2018-12-26T23:01:58.256Z,20.97
2018-12-26T23:04:39.032Z,25.00
2018-12-26T23:07:20.023Z,31.13
2018-12-26T23:10:00.517Z,27.67
2018-12-26T23:12:41.523Z,23.43
2018-12-26T23:15:22.904Z,27.40
2018-12-26T23:18:03.745Z,24.33
2018-12-26T23:20:44.252Z,27.63
2018-12-26T23:23:24.847Z,28.87
2018-12-26T23:26:07.120Z,27.03
2018-12-26T23:28:47.921Z,30.00
2018-12-26T23:31:28.649Z,26.10
2018-12-26T23:34:09.336Z,26.43
2018-12-26T23:36:50.880Z,27.33
2018-12-26T23:39:32.320Z,30.23
2018-12-26T23:42:13.732Z,26.57
2018-12-26T23:44:55.292Z,26.53
2018-12-26T23:47:36.024Z,26.20
2018-12-26T23:50:16.310Z,24.00
2018-12-26T23:52:57.544Z,22.93
2018-12-26T23:55:38.296Z,22.30
2018-12-26T23:58:19.394Z,22.87
